Time;durP1;ratioP1;P1;durP2;ratioP2;P2;SDS_P1;SDS_P2;PMS_P1;PMS_P2;Temp;Humidity;BMP_temperature;BMP_pressure;BME280_temperature;BME280_humidity;BME280_pressure;Samples;Min_cycle;Max_cycle;Signal;HPM_P1;HPM_P2
2022/10/20 00:01:51;;;;;;;37.63;9.57;;;;;;;15.99;50.30;100908.06;4950755;28;20472;-75
2022/10/20 00:04:17;;;;;;;203.07;21.27;;;;;;;16.01;49.99;100914.22;4950616;28;20400;-75
2022/10/20 00:06:42;;;;;;;35.97;9.85;;;;;;;16.04;50.02;100915.75;4951018;28;20035;-75
2022/10/20 00:09:08;;;;;;;33.72;9.98;;;;;;;16.03;49.98;100920.34;4951150;28;20034;-76
2022/10/20 00:11:33;;;;;;;21.75;9.57;;;;;;;15.83;50.10;100883.50;4950879;28;20042;-76
2022/10/20 00:14:00;;;;;;;153.18;18.10;;;;;;;16.07;50.08;100924.47;4950433;28;20102;-75
2022/10/20 00:16:28;;;;;;;53.92;11.50;;;;;;;16.13;50.20;100914.84;4950622;28;20090;-76
2022/10/20 00:18:55;;;;;;;43.95;9.90;;;;;;;16.19;50.03;100920.50;4950515;28;20687;-75
2022/10/20 00:21:23;;;;;;;35.50;9.98;;;;;;;16.22;50.04;100906.63;4951061;28;20094;-75
2022/10/20 00:23:48;;;;;;;23.55;9.48;;;;;;;16.32;49.87;100912.84;4950532;28;20066;-75
2022/10/20 00:26:17;;;;;;;25.88;9.55;;;;;;;16.36;50.07;100923.41;4950646;28;20530;-76
2022/10/20 00:28:43;;;;;;;39.47;9.82;;;;;;;16.38;49.98;100911.38;4950470;28;20038;-75
2022/10/20 00:31:10;;;;;;;21.60;10.20;;;;;;;16.46;49.85;100922.31;4950679;28;20046;-76
2022/10/20 00:33:35;;;;;;;19.75;9.60;;;;;;;16.52;49.64;100912.69;4950285;28;20097;-76
2022/10/20 00:36:03;;;;;;;21.80;9.60;;;;;;;16.58;49.48;100925.66;4932302;29;20039;-77
2022/10/20 00:38:29;;;;;;;29.65;10.27;;;;;;;16.63;49.43;100923.34;4950562;28;20046;-76
2022/10/20 00:40:55;;;;;;;22.30;8.85;;;;;;;16.65;49.67;100932.19;4950379;28;20483;-75
2022/10/20 00:43:20;;;;;;;21.73;9.57;;;;;;;16.69;49.63;100920.00;4950350;28;20046;-76
2022/10/20 00:45:53;;;;;;;16.33;9.50;;;;;;;16.51;49.83;100897.41;4948946;29;20046;-76
2022/10/20 00:48:24;;;;;;;148.73;15.57;;;;;;;16.66;50.01;100915.75;4950697;28;20035;-76
2022/10/20 00:50:52;;;;;;;412.90;33.25;;;;;;;16.80;49.70;100919.75;4950576;28;20031;-74
2022/10/20 00:53:21;;;;;;;31.52;10.20;;;;;;;16.82;49.75;100920.44;4950448;28;20034;-75
2022/10/20 00:55:50;;;;;;;15.15;9.32;;;;;;;16.83;49.88;100927.59;4954724;28;20055;-76
2022/10/20 00:58:16;;;;;;;30.67;9.43;;;;;;;16.79;49.95;100937.03;4956671;28;20036;-74
2022/10/20 01:00:45;;;;;;;19.92;8.30;;;;;;;16.80;50.23;100930.63;4956118;28;20035;-75
2022/10/20 01:03:17;;;;;;;17.00;8.68;;;;;;;16.78;50.35;100936.22;4950234;28;20031;-76
2022/10/20 01:05:42;;;;;;;;;;;;;;;16.82;50.33;100928.59;4950710;28;20023;-75
2022/10/20 01:08:08;;;;;;;28.52;9.98;;;;;;;16.78;50.32;100935.38;4950232;29;19917;-75
2022/10/20 01:10:40;;;;;;;25.90;11.00;;;;;;;16.74;49.76;100940.25;4950292;28;20499;-75
2022/10/20 01:13:22;;;;;;;83.05;45.13;;;;;;;16.66;49.70;100944.75;4950229;28;20035;-76
2022/10/20 01:15:52;;;;;;;99.22;33.92;;;;;;;16.62;50.02;100946.06;4950050;28;20114;-76
2022/10/20 01:18:17;;;;;;;34.75;13.30;;;;;;;16.61;49.89;100953.38;4952855;28;20511;-76
2022/10/20 01:21:04;;;;;;;32.35;14.73;;;;;;;16.49;50.34;100956.44;4953739;28;20023;-75
2022/10/20 01:23:52;;;;;;;46.72;13.93;;;;;;;16.35;50.58;100965.97;4953523;29;20031;-75
2022/10/20 01:27:02;;;;;;;40.80;12.98;;;;;;;16.27;50.57;100966.72;4953437;28;20598;-75
2022/10/20 01:29:48;;;;;;;49.70;13.63;;;;;;;16.17;50.92;100962.38;4953432;29;20039;-77
2022/10/20 01:32:26;;;;;;;41.00;14.35;;;;;;;15.88;51.34;100924.56;4953377;28;20400;-76
2022/10/20 01:35:10;;;;;;;50.20;16.10;;;;;;;16.14;51.00;100963.56;4953329;28;20034;-75
2022/10/20 01:38:00;;;;;;;123.50;22.02;;;;;;;16.05;51.01;100969.03;4953540;28;20028;-76
2022/10/20 01:40:57;;;;;;;52.53;17.23;;;;;;;16.07;50.95;100967.00;4953764;28;20030;-76
2022/10/20 01:43:27;;;;;;;36.90;17.85;;;;;;;16.04;50.78;100972.75;4893884;29;20040;-76
2022/10/20 01:45:53;;;;;;;50.22;15.35;;;;;;;16.03;51.05;100957.47;4894019;29;20480;-75
2022/10/20 01:48:22;;;;;;;32.45;15.50;;;;;;;15.97;51.04;100955.34;4893510;29;20481;-76
2022/10/20 01:50:49;;;;;;;40.92;15.20;;;;;;;15.92;51.00;100952.25;4893735;29;20044;-75
2022/10/20 01:53:15;;;;;;;31.55;14.20;;;;;;;15.68;51.50;100923.84;4893790;29;20033;-76
2022/10/20 01:55:41;;;;;;;32.65;13.95;;;;;;;15.84;51.98;100965.72;4893361;29;21498;-76
2022/10/20 01:58:22;;;;;;;29.60;13.32;;;;;;;15.79;52.18;100964.31;4878090;29;20056;-75
2022/10/20 02:00:50;;;;;;;76.85;15.27;;;;;;;15.78;52.70;100975.28;4893510;29;20131;-75
2022/10/20 02:03:27;;;;;;;33.53;13.77;;;;;;;15.50;52.91;100935.63;4893467;29;20033;-75
2022/10/20 02:05:55;;;;;;;32.42;12.57;;;;;;;15.71;52.91;100968.78;4893651;29;20065;-76
2022/10/20 02:08:36;;;;;;;33.10;13.50;;;;;;;15.68;52.95;100972.66;4894720;29;20064;-75
2022/10/20 02:11:05;;;;;;;31.50;11.73;;;;;;;15.67;53.00;100970.06;4899685;29;20041;-76
2022/10/20 02:13:34;;;;;;;26.95;11.30;;;;;;;15.68;52.80;100975.34;4899187;29;20075;-75
2022/10/20 02:16:06;;;;;;;33.75;11.15;;;;;;;15.73;53.02;100985.75;4894685;29;20041;-75
2022/10/20 02:18:40;;;;;;;38.92;13.50;;;;;;;15.70;52.84;100980.63;4893287;29;20037;-75
2022/10/20 02:21:07;;;;;;;99.70;16.75;;;;;;;15.68;53.00;100985.34;4948086;29;20071;-75
2022/10/20 02:23:36;;;;;;;25.20;14.18;;;;;;;15.68;52.84;100993.47;4952246;28;20054;-76
2022/10/20 02:26:05;;;;;;;48.65;14.38;;;;;;;15.51;53.14;100959.84;4952538;29;20031;-76
2022/10/20 02:28:34;;;;;;;29.55;14.05;;;;;;;15.72;52.69;100992.16;4951796;28;20023;-76
2022/10/20 02:31:01;;;;;;;52.92;14.27;;;;;;;15.70;52.86;100992.31;4952183;28;20032;-75
2022/10/20 02:33:28;;;;;;;37.95;14.98;;;;;;;15.65;52.66;101005.47;4952282;28;20031;-76
2022/10/20 02:35:58;;;;;;;25.75;13.75;;;;;;;15.65;52.66;101007.34;4952280;28;20038;-76
2022/10/20 02:38:24;;;;;;;32.65;15.35;;;;;;;15.70;52.68;101007.72;4952128;28;20023;-76
2022/10/20 02:40:49;;;;;;;35.53;13.68;;;;;;;15.73;52.52;101010.16;4952554;28;20403;-75
2022/10/20 02:43:15;;;;;;;29.42;13.77;;;;;;;15.75;52.67;101010.84;4952545;28;20023;-75
2022/10/20 02:45:40;;;;;;;38.63;16.40;;;;;;;15.71;52.57;101012.16;4952089;28;20028;-75
2022/10/20 02:48:08;;;;;;;30.98;16.60;;;;;;;15.70;51.92;101013.16;4952021;28;20027;-75
2022/10/20 02:50:34;;;;;;;41.50;17.90;;;;;;;15.63;51.63;101001.19;4951847;28;20476;-75
2022/10/20 02:52:59;;;;;;;31.45;16.92;;;;;;;15.59;51.82;101000.66;4951958;28;20036;-76
2022/10/20 02:55:25;;;;;;;65.88;20.30;;;;;;;15.55;51.86;101014.63;4951911;28;20105;-76
2022/10/20 02:57:52;;;;;;;66.55;19.02;;;;;;;15.56;52.11;101010.94;4952062;28;20031;-75
2022/10/20 03:00:18;;;;;;;147.52;22.60;;;;;;;15.54;52.23;101024.63;4951834;28;20027;-76
2022/10/20 03:02:44;;;;;;;124.22;24.15;;;;;;;15.41;52.61;100996.13;4951793;28;20083;-76
2022/10/20 03:05:09;;;;;;;38.90;16.55;;;;;;;15.47;52.76;101019.91;4951395;28;20042;-74
2022/10/20 03:07:35;;;;;;;37.63;16.48;;;;;;;15.43;52.80;101029.34;4951815;28;20027;-76
2022/10/20 03:10:00;;;;;;;36.95;16.17;;;;;;;15.41;52.67;101025.94;4951867;28;20035;-76
2022/10/20 03:12:25;;;;;;;34.47;16.27;;;;;;;15.37;53.00;101035.34;4951614;28;20023;-75
2022/10/20 03:14:51;;;;;;;40.55;16.48;;;;;;;15.41;53.00;101026.75;4951688;28;20046;-75
2022/10/20 03:17:16;;;;;;;53.25;16.92;;;;;;;15.47;52.79;101025.34;4951513;28;20023;-75
2022/10/20 03:19:42;;;;;;;44.30;16.83;;;;;;;15.49;52.75;101031.50;4951872;28;20441;-76
2022/10/20 03:22:07;;;;;;;36.67;15.55;;;;;;;15.52;52.37;101025.78;4952963;29;20106;-76
2022/10/20 03:24:32;;;;;;;34.85;16.75;;;;;;;15.48;52.20;101040.63;4957937;28;20082;-76
2022/10/20 03:26:58;;;;;;;34.45;15.25;;;;;;;15.50;52.41;101039.50;4957550;28;20032;-75
2022/10/20 03:29:23;;;;;;;34.92;16.05;;;;;;;15.47;52.50;101044.31;4954314;28;20042;-76
2022/10/20 03:31:49;;;;;;;61.30;21.13;;;;;;;15.49;52.41;101045.06;4951418;28;20028;-75
2022/10/20 03:34:14;;;;;;;57.30;18.95;;;;;;;15.47;52.46;101036.19;4951145;28;20035;-75
2022/10/20 03:36:40;;;;;;;63.47;17.35;;;;;;;15.54;52.76;101057.16;4951259;28;20023;-76
2022/10/20 03:39:05;;;;;;;43.95;15.43;;;;;;;15.47;52.86;101049.75;4951179;28;20031;-76
2022/10/20 03:41:31;;;;;;;46.85;16.45;;;;;;;15.51;53.15;101062.00;4951086;28;20557;-75
2022/10/20 03:43:56;;;;;;;125.80;20.95;;;;;;;15.51;53.48;101062.88;4951044;28;20491;-79
2022/10/20 03:46:22;;;;;;;100.72;20.05;;;;;;;15.52;53.63;101058.31;4951147;28;20070;-76
2022/10/20 03:48:47;;;;;;;132.30;20.25;;;;;;;15.57;53.63;101051.44;4951061;28;20031;-77
2022/10/20 03:51:13;;;;;;;32.58;13.07;;;;;;;15.57;53.71;101061.44;4950833;28;20507;-77
2022/10/20 03:53:39;;;;;;;100.35;15.88;;;;;;;15.60;54.55;101063.84;4951068;28;20039;-77
2022/10/20 03:56:11;;;;;;;39.83;16.20;;;;;;;15.58;54.45;101063.16;4950633;28;20093;-76
2022/10/20 03:58:37;;;;;;;42.40;16.25;;;;;;;15.63;53.99;101071.69;4950792;28;20598;-78
2022/10/20 04:01:05;;;;;;;33.38;16.33;;;;;;;15.72;53.95;101073.53;4950638;28;20061;-77
2022/10/20 04:03:30;;;;;;;45.80;15.48;;;;;;;15.76;54.16;101077.66;4950423;28;20035;-77
2022/10/20 04:05:56;;;;;;;30.65;14.55;;;;;;;15.71;54.06;101079.97;4949327;29;20037;-77
2022/10/20 04:08:21;;;;;;;47.50;15.10;;;;;;;15.76;54.18;101083.09;4946429;28;20487;-76
2022/10/20 04:10:47;;;;;;;39.42;16.15;;;;;;;15.71;54.06;101079.97;4949987;28;20038;-77
2022/10/20 04:13:12;;;;;;;33.47;14.25;;;;;;;15.71;54.64;101097.09;4950025;28;20117;-77
2022/10/20 04:15:37;;;;;;;490.70;44.35;;;;;;;15.62;55.02;101080.84;4949968;28;20035;-78
2022/10/20 04:18:03;;;;;;;208.23;26.52;;;;;;;15.58;55.58;101095.69;4950393;28;20031;-79
2022/10/20 04:20:28;;;;;;;155.73;19.60;;;;;;;15.43;56.20;101080.84;4949866;28;20035;-76
2022/10/20 04:22:54;;;;;;;123.78;17.95;;;;;;;15.58;56.45;101095.69;4949880;28;20028;-78
2022/10/20 04:25:19;;;;;;;52.50;13.98;;;;;;;15.63;56.18;101105.09;4949645;29;20047;-78
2022/10/20 04:27:45;;;;;;;52.03;14.05;;;;;;;15.73;56.44;101094.22;4949337;28;20032;-77
2022/10/20 04:30:10;;;;;;;48.03;16.70;;;;;;;15.74;55.88;101098.66;4950144;28;20519;-78
2022/10/20 04:32:36;;;;;;;60.47;18.98;;;;;;;15.74;55.71;101106.78;4931414;29;20146;-77
2022/10/20 04:35:01;;;;;;;36.42;16.70;;;;;;;15.66;56.56;101102.09;4955186;28;20039;-77
2022/10/20 04:37:27;;;;;;;83.22;18.00;;;;;;;15.78;56.15;101105.47;4968866;28;20023;-79
2022/10/20 04:39:52;;;;;;;272.77;31.60;;;;;;;15.77;56.63;101112.78;4973390;28;20027;-78
2022/10/20 04:42:18;;;;;;;64.78;12.27;;;;;;;15.86;56.68;101113.75;4960029;28;20118;-78
2022/10/20 04:44:44;;;;;;;143.98;31.38;;;;;;;15.84;57.18;101115.75;4949258;28;20077;-77
2022/10/20 04:47:09;;;;;;;178.43;26.92;;;;;;;15.89;57.76;101118.03;4948753;29;20027;-78
2022/10/20 04:49:35;;;;;;;218.38;21.42;;;;;;;15.94;58.13;101108.44;4949749;29;20035;-77
2022/10/20 04:52:00;;;;;;;184.93;38.28;;;;;;;15.70;58.12;101073.69;4950421;28;20475;-81
2022/10/20 04:54:26;;;;;;;89.38;16.35;;;;;;;15.91;57.75;101092.47;4951785;29;20098;-78
2022/10/20 04:56:51;;;;;;;134.68;15.88;;;;;;;16.09;57.24;101112.38;4952993;28;20066;-77
2022/10/20 04:59:17;;;;;;;261.70;21.02;;;;;;;16.16;56.60;101121.66;4952491;28;20023;-78
2022/10/20 05:01:42;;;;;;;67.88;7.15;;;;;;;16.20;55.81;101124.94;4952842;28;20055;-78
2022/10/20 05:04:09;;;;;;;71.88;9.98;;;;;;;15.93;55.44;101086.91;4952514;29;20027;-76
2022/10/20 05:06:34;;;;;;;114.13;11.15;;;;;;;16.06;55.66;101128.97;4951729;29;20070;-76
2022/10/20 05:09:02;;;;;;;100.55;10.30;;;;;;;15.90;55.54;101123.28;4952597;28;20414;-76
2022/10/20 05:11:29;;;;;;;62.75;7.90;;;;;;;15.64;55.27;101089.69;4951235;29;20054;-76
2022/10/20 05:13:55;;;;;;;96.47;10.45;;;;;;;15.79;55.18;101145.16;4953013;29;20073;-77
2022/10/20 05:16:21;;;;;;;365.88;24.65;;;;;;;15.80;55.31;101149.59;4952288;28;20038;-76
2022/10/20 05:18:47;;;;;;;93.03;8.85;;;;;;;15.74;54.56;101150.19;4952674;28;20035;-74
2022/10/20 05:21:20;;;;;;;150.00;9.70;;;;;;;15.77;54.05;101166.16;4952264;29;20040;-77
2022/10/20 05:23:45;;;;;;;25.65;5.68;;;;;;;15.75;53.89;101157.31;4952185;29;20506;-78
2022/10/20 05:26:16;;;;;;;106.43;8.88;;;;;;;15.73;53.39;101172.88;4952440;29;20075;-77
2022/10/20 05:28:47;;;;;;;21.35;5.72;;;;;;;15.70;53.16;101179.44;4952419;28;20130;-76
2022/10/20 05:31:14;;;;;;;479.75;46.42;;;;;;;15.74;53.17;101186.31;4953715;29;20042;-81
2022/10/20 05:33:44;;;;;;;1999.90;307.63;;;;;;;15.74;52.55;101183.59;4939575;29;20039;-79
2022/10/20 05:36:12;;;;;;;31.63;4.97;;;;;;;15.79;51.89;101199.41;4952591;28;20141;-76
2022/10/20 05:38:39;;;;;;;396.17;28.90;;;;;;;15.86;52.00;101203.28;4952355;29;20039;-79
2022/10/20 05:41:16;;;;;;;218.57;21.27;;;;;;;15.89;51.38;101208.41;4952800;28;20034;-77
2022/10/20 05:43:45;;;;;;;47.63;5.18;;;;;;;15.93;50.74;101209.81;4952489;28;20887;-77
2022/10/20 05:46:11;;;;;;;53.90;8.43;;;;;;;15.96;50.14;101209.53;4952353;29;20106;-77
2022/10/20 05:48:36;;;;;;;119.35;11.52;;;;;;;16.00;49.64;101216.38;4965913;29;20057;-78
2022/10/20 05:51:14;;;;;;;179.52;38.00;;;;;;;15.86;49.72;101189.72;4971997;28;20083;-78
2022/10/20 05:53:39;;;;;;;125.97;14.73;;;;;;;15.97;48.90;101219.38;4971541;28;20028;-76
2022/10/20 05:56:07;;;;;;;49.38;9.07;;;;;;;16.02;48.49;101229.81;4953346;28;20055;-78
2022/10/20 05:58:33;;;;;;;150.38;10.85;;;;;;;15.98;47.99;101234.66;4952815;29;20111;-77
2022/10/20 06:01:07;;;;;;;760.05;89.68;;;;;;;15.97;47.93;101238.38;4953119;28;20031;-79
2022/10/20 06:03:32;;;;;;;105.53;12.95;;;;;;;15.79;48.03;101196.69;4953051;28;20054;-77
2022/10/20 06:05:59;;;;;;;167.27;25.23;;;;;;;15.99;48.23;101247.22;4952848;28;20158;-78
2022/10/20 06:08:25;;;;;;;1128.40;137.73;;;;;;;15.75;47.66;101206.13;4952957;28;20027;-78
2022/10/20 06:10:50;;;;;;;143.63;12.23;;;;;;;15.85;47.38;101246.81;4952904;28;20031;-77
2022/10/20 06:13:15;;;;;;;57.08;9.93;;;;;;;15.77;47.65;101236.69;4953218;28;20023;-79
2022/10/20 06:15:41;;;;;;;655.08;76.82;;;;;;;15.82;47.57;101258.81;4952695;29;20030;-78
2022/10/20 06:18:06;;;;;;;70.05;6.90;;;;;;;15.62;47.27;101235.41;4952717;28;20035;-78
2022/10/20 06:20:32;;;;;;;387.83;42.28;;;;;;;15.77;47.17;101263.81;4952454;29;20031;-78
2022/10/20 06:22:57;;;;;;;39.28;4.13;;;;;;;15.83;47.58;101262.38;4953040;28;20551;-77
2022/10/20 06:25:22;;;;;;;54.35;6.05;;;;;;;15.83;47.25;101273.22;4952440;29;20105;-78
2022/10/20 06:27:48;;;;;;;112.22;10.27;;;;;;;15.80;47.54;101274.38;4952543;29;20023;-76
2022/10/20 06:30:13;;;;;;;75.78;7.40;;;;;;;15.96;47.35;101274.63;4952838;28;20034;-78
2022/10/20 06:32:39;;;;;;;103.75;9.60;;;;;;;15.96;47.29;101274.63;4952337;29;20034;-78
2022/10/20 06:35:04;;;;;;;73.70;6.80;;;;;;;16.06;46.80;101282.78;4952415;28;20046;-78
2022/10/20 06:37:30;;;;;;;196.52;13.10;;;;;;;16.08;46.82;101284.38;4951011;29;20127;-78
2022/10/20 06:39:55;;;;;;;42.55;4.28;;;;;;;16.11;46.54;101283.22;4952266;28;20027;-78
2022/10/20 06:42:21;;;;;;;83.05;7.32;;;;;;;15.88;46.09;101249.22;4952345;29;20038;-77
2022/10/20 06:44:46;;;;;;;466.63;50.85;;;;;;;15.97;46.76;101298.06;4952474;29;20039;-78
2022/10/20 06:47:12;;;;;;;46.35;7.70;;;;;;;15.86;47.10;101271.09;4952287;28;20027;-78
2022/10/20 06:49:37;;;;;;;50.63;4.72;;;;;;;15.90;46.79;101291.47;4952465;29;20028;-77
2022/10/20 06:52:03;;;;;;;66.25;6.28;;;;;;;15.80;47.05;101279.81;4952071;29;20034;-78
2022/10/20 06:54:28;;;;;;;91.63;7.68;;;;;;;15.98;47.20;101301.63;4952122;29;20035;-77
2022/10/20 06:56:54;;;;;;;71.00;7.70;;;;;;;15.96;46.98;101290.91;4952499;29;20137;-77
2022/10/20 06:59:19;;;;;;;42.45;5.22;;;;;;;15.88;46.70;101293.50;4960053;29;20120;-77
2022/10/20 07:01:45;;;;;;;48.28;5.55;;;;;;;15.80;46.79;101306.94;4959402;29;20039;-76
2022/10/20 07:04:13;;;;;;;49.95;4.68;;;;;;;15.87;46.64;101320.78;4970862;29;20094;-78
2022/10/20 07:06:43;;;;;;;91.80;6.88;;;;;;;15.83;46.78;101327.47;4970228;28;20042;-76
2022/10/20 07:09:15;;;;;;;22.27;4.15;;;;;;;15.84;46.97;101318.34;4956626;29;20031;-76
2022/10/20 07:11:41;;;;;;;173.48;12.95;;;;;;;15.64;46.86;101287.63;4933488;29;20043;-77
2022/10/20 07:14:06;;;;;;;76.20;6.63;;;;;;;15.77;46.50;101320.78;4951530;28;20089;-80
2022/10/20 07:16:34;;;;;;;43.38;4.07;;;;;;;15.67;46.67;101322.59;4916818;29;20046;-77
2022/10/20 07:19:00;;;;;;;121.82;10.25;;;;;;;15.70;46.57;101328.59;4951564;29;20031;-77
2022/10/20 07:21:27;;;;;;;91.55;7.78;;;;;;;15.67;46.43;101336.16;4951553;28;20462;-78
2022/10/20 07:23:56;;;;;;;91.78;10.07;;;;;;;15.65;46.90;101338.16;4951433;29;20498;-77
2022/10/20 07:26:27;;;;;;;75.35;7.18;;;;;;;15.54;46.89;101341.84;4948080;28;20546;-76
2022/10/20 07:28:55;;;;;;;53.00;5.50;;;;;;;15.53;46.88;101339.28;4950099;28;20135;-75
2022/10/20 07:31:28;;;;;;;53.55;4.10;;;;;;;15.41;47.06;101335.78;4950099;28;20023;-77
2022/10/20 07:33:53;;;;;;;43.80;4.43;;;;;;;15.41;47.39;101340.38;4950442;28;20031;-76
2022/10/20 07:36:22;;;;;;;43.20;6.30;;;;;;;15.35;47.61;101321.94;4949793;28;20036;-75
2022/10/20 07:38:50;;;;;;;60.15;5.50;;;;;;;15.56;46.86;101355.28;4949968;28;20031;-74
2022/10/20 07:41:16;;;;;;;52.05;5.53;;;;;;;15.50;46.48;101347.69;4950093;28;20031;-76
2022/10/20 07:43:42;;;;;;;123.75;8.30;;;;;;;15.48;47.06;101355.09;4949308;28;20039;-75
2022/10/20 07:46:09;;;;;;;1999.90;445.45;;;;;;;15.31;47.14;101315.94;4950106;28;20043;-76
2022/10/20 07:48:34;;;;;;;462.52;56.10;;;;;;;15.48;47.07;101350.53;4949616;28;20038;-76
2022/10/20 07:51:24;;;;;;;135.70;15.50;;;;;;;15.53;47.00;101350.13;4931204;29;20039;-77
2022/10/20 07:54:02;;;;;;;96.20;5.93;;;;;;;15.48;46.59;101339.69;4950304;29;20099;-77
2022/10/20 07:56:30;;;;;;;77.15;39.78;;;;;;;15.39;46.49;101328.78;4949821;28;20055;-75
2022/10/20 07:58:56;;;;;;;227.45;13.80;;;;;;;15.63;46.45;101360.00;4949535;28;20486;-76
2022/10/20 08:01:22;;;;;;;39.88;5.43;;;;;;;15.70;46.15;101361.16;4949992;28;20031;-76
2022/10/20 08:03:47;;;;;;;1862.47;234.63;;;;;;;15.79;45.96;101356.75;4950286;28;20066;-76
2022/10/20 08:06:13;;;;;;;48.15;6.70;;;;;;;15.83;46.09;101366.31;4949280;28;20038;-75
2022/10/20 08:08:38;;;;;;;69.00;7.68;;;;;;;15.99;45.89;101384.75;4950058;28;20055;-78
2022/10/20 08:11:04;;;;;;;178.23;17.77;;;;;;;15.97;45.22;101373.19;4950289;28;20042;-76
2022/10/20 08:13:30;;;;;;;18.75;2.28;;;;;;;15.91;45.02;101369.19;4949949;28;20073;-76
2022/10/20 08:15:56;;;;;;;1194.32;160.20;;;;;;;15.97;44.92;101381.31;4959892;28;20027;-76
2022/10/20 08:18:22;;;;;;;85.65;7.18;;;;;;;15.89;44.87;101367.59;4961873;28;20041;-77
2022/10/20 08:20:47;;;;;;;65.18;6.68;;;;;;;15.76;44.92;101373.28;4959095;28;20069;-77
2022/10/20 08:23:13;;;;;;;142.32;16.48;;;;;;;15.89;44.77;101370.31;4949588;28;20036;-76
2022/10/20 08:25:39;;;;;;;21.23;3.55;;;;;;;16.01;44.40;101380.91;4951666;28;20058;-77
2022/10/20 08:28:04;;;;;;;130.35;7.30;;;;;;;15.98;43.69;101381.19;4952127;28;20035;-76
2022/10/20 08:30:30;;;;;;;30.85;3.67;;;;;;;15.82;44.57;101390.84;4953281;28;20483;-78
2022/10/20 08:32:55;;;;;;;296.73;31.65;;;;;;;15.85;44.06;101366.16;4953505;29;20027;-79
2022/10/20 08:35:21;;;;;;;769.05;91.68;;;;;;;16.05;43.94;101392.34;4953488;29;20494;-77
2022/10/20 08:37:46;;;;;;;78.82;9.32;;;;;;;16.08;42.86;101386.63;4952319;29;20039;-77
2022/10/20 08:40:19;;;;;;;199.80;19.08;;;;;;;16.12;42.83;101394.34;4953265;29;20042;-78
2022/10/20 08:42:47;;;;;;;872.30;84.15;;;;;;;16.12;42.67;101383.47;4935123;29;20044;-77
2022/10/20 08:45:24;;;;;;;56.65;4.25;;;;;;;16.18;42.42;101398.31;4953268;28;20031;-76
2022/10/20 08:47:57;;;;;;;47.03;4.15;;;;;;;16.00;42.41;101354.75;4952279;29;20122;-78
2022/10/20 08:50:26;;;;;;;782.03;90.22;;;;;;;16.33;42.53;101403.19;4953499;29;20868;-77
2022/10/20 08:52:56;;;;;;;39.45;3.22;;;;;;;16.38;42.60;101410.06;4951070;29;20044;-77
2022/10/20 08:55:28;;;;;;;60.35;4.70;;;;;;;16.35;42.68;101411.22;4953353;28;20059;-78
2022/10/20 08:58:00;;;;;;;36.75;6.57;;;;;;;16.52;42.88;101412.34;4953021;28;20050;-78
2022/10/20 09:00:26;;;;;;;99.45;9.68;;;;;;;16.51;42.12;101413.34;4953096;28;20521;-76
2022/10/20 09:02:51;;;;;;;96.63;9.73;;;;;;;16.42;41.79;101381.63;4953553;28;20065;-76
2022/10/20 09:05:22;;;;;;;20.08;2.65;;;;;;;16.66;41.50;101401.94;4953227;28;20031;-77
2022/10/20 09:07:48;;;;;;;12.88;2.58;;;;;;;16.65;40.96;101383.06;4953116;29;20039;-79
2022/10/20 09:10:26;;;;;;;8.10;2.33;;;;;;;16.90;40.82;101417.75;4953150;28;20027;-78
2022/10/20 09:12:52;;;;;;;10.27;2.33;;;;;;;17.11;40.21;101414.84;4953378;28;20070;-78
2022/10/20 09:15:19;;;;;;;52.28;4.15;;;;;;;17.23;39.89;101409.06;4952930;28;20110;-77
2022/10/20 09:17:54;;;;;;;11.60;2.47;;;;;;;17.09;40.31;101417.72;4952793;29;20039;-79
2022/10/20 09:20:35;;;;;;;18.60;2.35;;;;;;;17.31;40.38;101422.78;4953108;28;20403;-77
2022/10/20 09:23:00;;;;;;;271.02;15.85;;;;;;;17.46;39.65;101430.47;4952963;29;20038;-77
2022/10/20 09:25:26;;;;;;;78.53;4.60;;;;;;;17.48;39.25;101423.00;4952457;29;20023;-77
2022/10/20 09:27:54;;;;;;;211.55;11.27;;;;;;;17.61;38.85;101431.72;4957867;29;20392;-76
2022/10/20 09:30:32;;;;;;;55.55;3.00;;;;;;;17.74;38.98;101445.81;4968461;28;20038;-80
2022/10/20 09:32:58;;;;;;;268.08;17.42;;;;;;;17.86;38.04;101433.72;4959638;29;20222;-78
2022/10/20 09:35:29;;;;;;;22.30;1.70;;;;;;;17.89;37.03;101430.69;4952594;29;20118;-76
2022/10/20 09:38:11;;;;;;;14.35;2.58;;;;;;;17.74;35.99;101385.94;4953079;28;20483;-80
2022/10/20 09:40:53;;;;;;;81.13;36.25;;;;;;;18.06;35.78;101429.88;4951732;29;20056;-80
2022/10/20 09:43:19;;;;;;;19.42;2.50;;;;;;;18.14;35.59;101421.78;4952255;29;20118;-77
2022/10/20 09:45:59;;;;;;;50.63;3.10;;;;;;;18.05;35.53;101387.31;4952158;29;20134;-79
2022/10/20 09:48:28;;;;;;;24.30;2.67;;;;;;;18.11;35.26;101396.72;4952461;29;20027;-81
2022/10/20 09:50:57;;;;;;;17.38;2.50;;;;;;;18.31;35.44;101429.13;4959967;28;20024;-75
2022/10/20 09:53:28;;;;;;;19.60;3.25;;;;;;;18.28;34.84;101424.00;4952603;28;20178;-76
2022/10/20 09:55:54;;;;;;;50.97;4.35;;;;;;;18.28;34.64;101426.72;4952405;29;20091;-78
2022/10/20 09:58:32;;;;;;;31.77;4.32;;;;;;;18.18;35.23;101425.06;4952479;29;20513;-76
2022/10/20 10:01:02;;;;;;;419.88;25.65;;;;;;;18.08;34.93;101397.91;4952088;28;20039;-77
2022/10/20 10:03:37;;;;;;;30.75;3.88;;;;;;;18.17;35.06;101417.88;4951900;28;20571;-77
2022/10/20 10:06:36;;;;;;;13.00;2.05;;;;;;;17.89;35.13;101396.16;4951613;29;20550;-77
2022/10/20 10:09:22;;;;;;;51.90;6.20;;;;;;;18.17;35.48;101426.91;4951801;29;20063;-78
2022/10/20 10:11:58;;;;;;;58.92;3.83;;;;;;;18.32;35.22;101419.06;4951842;28;20031;-77
2022/10/20 10:14:24;;;;;;;57.47;4.43;;;;;;;18.42;35.11;101425.28;4951720;28;20038;-77
2022/10/20 10:16:49;;;;;;;25.70;2.55;;;;;;;18.46;35.04;101416.66;4951630;29;20027;-77
2022/10/20 10:19:19;;;;;;;989.05;121.00;;;;;;;18.53;34.88;101416.06;4951645;29;20130;-78
2022/10/20 10:21:50;;;;;;;1033.13;139.30;;;;;;;18.67;34.73;101418.22;4951376;29;20031;-78
2022/10/20 10:24:36;;;;;;;119.57;9.35;;;;;;;18.68;34.66;101430.84;4950182;28;20050;-76
2022/10/20 10:27:02;;;;;;;20.23;2.65;;;;;;;18.72;34.63;101424.06;4951058;29;20100;-76
2022/10/20 10:29:35;;;;;;;77.75;5.65;;;;;;;18.86;34.63;101418.03;4951491;29;20031;-77
2022/10/20 10:32:12;;;;;;;663.90;54.25;;;;;;;18.92;34.49;101418.28;4951569;29;20447;-77
2022/10/20 10:35:00;;;;;;;140.80;13.75;;;;;;;19.12;34.77;101420.75;4951691;28;20073;-77
2022/10/20 10:37:27;;;;;;;64.63;9.35;;;;;;;19.27;34.05;101413.69;4951066;29;20034;-78
2022/10/20 10:39:52;;;;;;;44.88;5.13;;;;;;;19.61;33.49;101424.66;4952785;29;20082;-74
2022/10/20 10:42:30;;;;;;;508.38;58.78;;;;;;;19.86;33.28;101421.00;4957987;29;20094;-75
2022/10/20 10:45:17;;;;;;;43.47;4.63;;;;;;;20.00;33.04;101423.06;4963038;28;20095;-76
2022/10/20 10:47:48;;;;;;;157.63;11.90;;;;;;;19.91;33.04;101424.06;4954596;28;20477;-76
2022/10/20 10:50:25;;;;;;;202.20;16.97;;;;;;;19.94;33.32;101393.72;4950354;28;20063;-76
2022/10/20 10:52:56;;;;;;;50.33;9.70;;;;;;;20.40;33.55;101415.00;4948559;29;20138;-75
2022/10/20 10:55:30;;;;;;;26.98;5.07;;;;;;;20.55;32.31;101413.31;4951013;29;20044;-76
2022/10/20 10:58:10;;;;;;;55.97;7.45;;;;;;;20.46;32.66;101419.78;4950767;29;20051;-77
2022/10/20 11:00:57;;;;;;;31.80;2.55;;;;;;;20.60;31.88;101401.88;4964803;28;20114;-78
2022/10/20 11:04:07;;;;;;;27.45;3.58;;;;;;;20.40;32.44;101401.34;4950593;29;20081;-78
2022/10/20 11:06:58;;;;;;;19.55;3.30;;;;;;;20.38;33.16;101403.41;4949601;28;20039;-78
2022/10/20 11:09:29;;;;;;;31.80;3.75;;;;;;;20.44;33.09;101405.44;4950718;29;20034;-77
2022/10/20 11:12:06;;;;;;;70.47;9.05;;;;;;;20.58;32.54;101393.81;4950687;29;20031;-76
2022/10/20 11:14:47;;;;;;;1999.90;284.88;;;;;;;20.58;32.40;101385.63;4950856;29;20038;-78
2022/10/20 11:17:31;;;;;;;393.30;39.38;;;;;;;20.52;32.25;101378.13;4957224;28;20042;-78
2022/10/20 11:20:23;;;;;;;89.28;7.95;;;;;;;20.52;32.66;101393.66;4950516;28;20027;-75